createdAt,value
2023-01-28T00:00:55.463Z,2.40
2023-01-28T00:03:22.725Z,2.30
2023-01-28T00:05:49.757Z,2.33
2023-01-28T00:08:16.783Z,2.30
2023-01-28T00:10:43.686Z,2.25
2023-01-28T00:13:16.435Z,2.00
2023-01-28T00:15:43.381Z,2.00
2023-01-28T00:18:10.409Z,5.28
2023-01-28T00:20:37.416Z,3.28
2023-01-28T00:23:04.394Z,2.20
2023-01-28T00:25:31.318Z,1.95
2023-01-28T00:27:58.376Z,2.38
2023-01-28T00:30:25.349Z,2.75
2023-01-28T00:32:54.854Z,2.33
2023-01-28T00:35:21.869Z,3.47
2023-01-28T00:37:48.860Z,3.50
2023-01-28T00:40:16.080Z,2.47
2023-01-28T00:42:43.045Z,3.90
2023-01-28T00:45:10.424Z,1.83
2023-01-28T00:47:37.845Z,5.45
2023-01-28T00:50:05.552Z,2.83
2023-01-28T00:52:32.598Z,2.00
2023-01-28T00:54:59.654Z,2.92
2023-01-28T00:57:26.691Z,3.53
2023-01-28T00:59:53.614Z,1.98
2023-01-28T01:02:22.284Z,2.97
2023-01-28T01:05:01.480Z,3.93
2023-01-28T01:07:41.653Z,6.82
2023-01-28T01:10:15.916Z,3.15
2023-01-28T01:12:43.557Z,5.30
2023-01-28T01:15:11.351Z,5.03
2023-01-28T01:17:40.323Z,3.58
2023-01-28T01:20:13.085Z,3.70
2023-01-28T01:22:40.075Z,6.07
2023-01-28T01:25:07.477Z,3.38
2023-01-28T01:27:34.715Z,5.30
2023-01-28T01:30:01.803Z,10.77
2023-01-28T01:32:32.735Z,4.63
2023-01-28T01:34:59.770Z,5.15
2023-01-28T01:37:27.135Z,5.13
2023-01-28T01:39:54.248Z,7.25
2023-01-28T01:42:21.493Z,6.15
2023-01-28T01:44:54.191Z,5.55
2023-01-28T01:47:43.587Z,9.43
2023-01-28T01:50:45.812Z,6.60
2023-01-28T01:53:18.991Z,3.33
2023-01-28T01:55:50.204Z,5.20
2023-01-28T01:58:20.050Z,4.93
2023-01-28T02:00:47.720Z,4.93
2023-01-28T02:03:17.483Z,3.83
2023-01-28T02:05:44.498Z,4.72
2023-01-28T02:08:23.548Z,6.45
2023-01-28T02:10:59.327Z,6.55
2023-01-28T02:13:31.140Z,12.02
2023-01-28T02:16:03.053Z,5.18
2023-01-28T02:18:30.136Z,4.82
2023-01-28T02:21:15.787Z,5.00
2023-01-28T02:24:13.224Z,7.57
2023-01-28T02:27:12.317Z,5.50
2023-01-28T02:29:56.264Z,6.40
2023-01-28T02:32:36.938Z,5.20
2023-01-28T02:35:25.163Z,8.18
2023-01-28T02:38:09.685Z,4.97
2023-01-28T02:41:01.103Z,5.10
2023-01-28T02:43:37.860Z,5.03
2023-01-28T02:46:36.682Z,4.18
2023-01-28T02:49:08.338Z,5.38
2023-01-28T02:52:07.466Z,6.05
2023-01-28T02:54:54.556Z,7.00
2023-01-28T02:57:57.163Z,5.07
2023-01-28T03:01:01.898Z,5.43
2023-01-28T03:03:40.714Z,3.97
2023-01-28T03:06:12.888Z,6.60
2023-01-28T03:09:12.235Z,4.00
2023-01-28T03:12:06.180Z,5.85
2023-01-28T03:14:53.734Z,4.80
2023-01-28T03:18:11.497Z,3.55
2023-01-28T03:21:02.968Z,3.97
2023-01-28T03:23:57.877Z,7.07
2023-01-28T03:26:46.349Z,5.32
2023-01-28T03:29:34.044Z,8.38
2023-01-28T03:32:23.801Z,5.38
2023-01-28T03:35:10.662Z,8.30
2023-01-28T03:37:38.266Z,9.43
2023-01-28T03:40:14.211Z,5.28
2023-01-28T03:42:43.126Z,6.88
2023-01-28T03:45:22.809Z,8.80
2023-01-28T03:47:49.926Z,2.88
2023-01-28T03:50:17.115Z,7.60
2023-01-28T03:53:14.976Z,7.57
2023-01-28T03:55:50.234Z,7.07
2023-01-28T03:58:18.401Z,5.97
2023-01-28T04:00:46.324Z,5.20
2023-01-28T04:03:17.044Z,7.05
2023-01-28T04:06:06.412Z,6.72
2023-01-28T04:08:56.480Z,5.75
2023-01-28T04:12:02.264Z,9.13
2023-01-28T04:14:35.686Z,8.13
2023-01-28T04:17:10.884Z,4.95
2023-01-28T04:19:38.803Z,5.43
2023-01-28T04:22:10.261Z,3.45
2023-01-28T04:24:37.449Z,6.63
2023-01-28T04:27:04.993Z,6.75
2023-01-28T04:29:31.830Z,5.35
2023-01-28T04:32:11.833Z,4.05
2023-01-28T04:34:57.378Z,4.60
2023-01-28T04:37:47.539Z,5.72
2023-01-28T04:40:33.195Z,7.68
2023-01-28T04:43:10.031Z,7.25
2023-01-28T04:45:57.150Z,6.95
2023-01-28T04:48:36.769Z,8.20
2023-01-28T04:51:22.479Z,9.55
2023-01-28T04:54:15.361Z,5.75
2023-01-28T04:56:42.362Z,7.82
2023-01-28T04:59:09.986Z,5.68
2023-01-28T05:01:38.393Z,5.00
2023-01-28T05:04:06.232Z,7.55
2023-01-28T05:06:37.244Z,5.53
2023-01-28T05:09:30.376Z,6.43
2023-01-28T05:11:57.267Z,6.50
2023-01-28T05:14:24.335Z,3.45
2023-01-28T05:17:03.076Z,4.32
2023-01-28T05:19:30.460Z,6.28
2023-01-28T05:21:59.478Z,5.57
2023-01-28T05:24:36.651Z,6.78
2023-01-28T05:27:04.285Z,7.85
2023-01-28T05:29:33.030Z,4.65
2023-01-28T05:32:00.038Z,5.85
2023-01-28T05:34:27.031Z,5.45
2023-01-28T05:36:55.598Z,4.85
2023-01-28T05:39:31.526Z,8.02
2023-01-28T05:41:58.484Z,4.00
2023-01-28T05:44:25.703Z,4.70
2023-01-28T05:47:08.351Z,5.70
2023-01-28T05:49:50.727Z,7.25
2023-01-28T05:52:44.314Z,7.63
2023-01-28T05:55:22.836Z,7.32
2023-01-28T05:57:50.202Z,6.20
2023-01-28T06:00:21.069Z,7.63
2023-01-28T06:02:47.965Z,7.00
2023-01-28T06:05:15.975Z,5.82
2023-01-28T06:07:47.680Z,8.57
2023-01-28T06:10:18.151Z,5.13
2023-01-28T06:12:45.968Z,5.88
2023-01-28T06:18:08.733Z,6.43
2023-01-28T06:20:36.228Z,3.58
2023-01-28T06:23:03.299Z,5.38
2023-01-28T06:25:30.284Z,6.07
2023-01-28T06:28:01.321Z,3.72
2023-01-28T06:30:28.212Z,4.07
2023-01-28T06:32:56.161Z,6.22
2023-01-28T06:35:23.709Z,4.22
2023-01-28T06:37:51.019Z,4.10
2023-01-28T06:40:18.350Z,5.85
2023-01-28T06:42:45.694Z,4.05
2023-01-28T06:45:12.550Z,3.90
2023-01-28T06:47:40.140Z,6.75
2023-01-28T06:50:07.675Z,6.28
2023-01-28T06:52:34.527Z,6.65
2023-01-28T06:55:01.795Z,6.25
2023-01-28T06:57:28.678Z,4.57
2023-01-28T06:59:55.603Z,7.85
2023-01-28T07:02:22.545Z,8.02
2023-01-28T07:04:49.416Z,7.78
2023-01-28T07:07:16.429Z,9.20
2023-01-28T07:09:43.833Z,7.30
2023-01-28T07:12:10.866Z,7.60
2023-01-28T07:14:37.753Z,8.05
2023-01-28T07:17:04.755Z,7.88
2023-01-28T07:19:31.985Z,6.72
2023-01-28T07:22:00.953Z,9.57
2023-01-28T07:24:27.969Z,8.45
2023-01-28T07:26:55.175Z,8.18
2023-01-28T07:29:22.378Z,9.18
2023-01-28T07:31:49.315Z,8.35
2023-01-28T07:34:16.306Z,8.18
2023-01-28T07:36:43.212Z,7.85
2023-01-28T07:39:10.067Z,8.40
2023-01-28T07:41:37.063Z,9.52
2023-01-28T07:44:07.358Z,7.45
2023-01-28T07:46:34.309Z,8.48
2023-01-28T07:49:01.454Z,9.80
2023-01-28T07:51:28.420Z,8.65
2023-01-28T07:53:55.312Z,13.15
2023-01-28T07:56:22.164Z,6.93
2023-01-28T07:58:51.980Z,11.50
2023-01-28T08:01:19.808Z,11.18
2023-01-28T08:03:46.725Z,9.60
2023-01-28T08:06:13.624Z,9.88
2023-01-28T08:08:40.542Z,11.73
2023-01-28T08:11:11.779Z,12.32
2023-01-28T08:13:38.671Z,12.10
2023-01-28T08:16:06.565Z,10.02
2023-01-28T08:18:33.701Z,10.38
2023-01-28T08:21:00.563Z,10.50
2023-01-28T08:23:27.891Z,9.95
2023-01-28T08:25:55.267Z,12.20
2023-01-28T08:28:22.395Z,10.57
2023-01-28T08:30:49.577Z,11.55
2023-01-28T08:33:17.961Z,10.68
2023-01-28T08:35:45.408Z,14.02
2023-01-28T08:38:15.397Z,12.98
2023-01-28T08:40:42.551Z,8.05
2023-01-28T08:43:09.776Z,11.60
2023-01-28T08:45:36.718Z,14.00
2023-01-28T08:48:05.696Z,11.02
2023-01-28T08:50:35.900Z,13.18
2023-01-28T08:53:10.039Z,6.75
2023-01-28T08:55:37.134Z,11.48
2023-01-28T08:58:11.144Z,9.18
2023-01-28T09:00:38.910Z,14.35
2023-01-28T09:03:06.775Z,6.53
2023-01-28T09:05:37.603Z,14.30
2023-01-28T09:08:06.979Z,8.00
2023-01-28T09:10:34.119Z,12.98
2023-01-28T09:13:08.867Z,10.60
2023-01-28T09:15:36.281Z,10.15
2023-01-28T09:18:03.669Z,12.85
2023-01-28T09:20:30.651Z,5.78
2023-01-28T09:22:58.902Z,10.60
2023-01-28T09:25:25.803Z,14.50
2023-01-28T09:27:52.794Z,10.70
2023-01-28T09:30:19.762Z,9.75
2023-01-28T09:32:50.614Z,11.52
2023-01-28T09:35:18.311Z,10.27
2023-01-28T09:37:46.355Z,17.55
2023-01-28T09:40:19.143Z,11.60
2023-01-28T09:42:48.629Z,12.98
2023-01-28T09:45:38.850Z,13.05
2023-01-28T09:48:11.135Z,12.18
2023-01-28T09:50:41.519Z,11.63
2023-01-28T09:53:30.741Z,14.85
2023-01-28T09:56:12.570Z,17.30
2023-01-28T09:58:39.642Z,16.05
2023-01-28T10:01:22.298Z,16.70
2023-01-28T10:04:07.598Z,15.73
2023-01-28T10:06:34.664Z,12.15
2023-01-28T10:09:43.181Z,16.05
2023-01-28T10:12:21.935Z,14.80
2023-01-28T10:15:17.225Z,18.88
2023-01-28T10:17:48.271Z,17.75
2023-01-28T10:20:31.148Z,16.77
2023-01-28T10:23:22.782Z,13.63
2023-01-28T10:25:49.708Z,14.90
2023-01-28T10:28:24.219Z,12.73
2023-01-28T10:30:52.014Z,15.43
2023-01-28T10:33:22.353Z,13.55
2023-01-28T10:35:49.766Z,15.18
2023-01-28T10:38:21.356Z,16.10
2023-01-28T10:40:48.349Z,14.55
2023-01-28T10:43:25.448Z,15.20
2023-01-28T10:46:21.297Z,10.90
2023-01-28T10:49:06.321Z,15.63
2023-01-28T10:51:36.580Z,18.80
2023-01-28T10:54:04.781Z,14.50
2023-01-28T10:56:35.726Z,10.73
2023-01-28T10:59:02.628Z,17.83
2023-01-28T11:01:45.544Z,15.82
2023-01-28T11:04:20.433Z,13.50
2023-01-28T11:06:59.333Z,13.88
2023-01-28T11:09:29.718Z,11.35
2023-01-28T11:11:57.786Z,16.38
2023-01-28T11:14:27.177Z,14.43
2023-01-28T11:16:58.189Z,10.07
2023-01-28T11:19:32.318Z,16.40
2023-01-28T11:21:59.691Z,15.45
2023-01-28T11:24:31.057Z,13.30
2023-01-28T11:27:01.794Z,13.52
2023-01-28T11:29:32.887Z,14.57
2023-01-28T11:32:01.080Z,16.50
2023-01-28T11:34:30.543Z,22.10
2023-01-28T11:37:12.965Z,12.93
2023-01-28T11:39:40.061Z,16.40
2023-01-28T11:42:20.984Z,17.42
2023-01-28T11:44:49.286Z,16.05
2023-01-28T11:47:19.035Z,10.73
2023-01-28T11:50:13.801Z,15.02
2023-01-28T11:53:06.835Z,21.17
2023-01-28T11:55:52.951Z,21.50
2023-01-28T11:58:19.821Z,13.13
2023-01-28T12:01:07.864Z,16.50
2023-01-28T12:03:53.072Z,12.20
2023-01-28T12:07:02.488Z,18.05
2023-01-28T12:09:52.042Z,21.55
2023-01-28T12:12:35.665Z,13.73
2023-01-28T12:15:08.523Z,20.80
2023-01-28T12:17:46.643Z,19.40
2023-01-28T12:20:42.656Z,12.02
2023-01-28T12:23:29.839Z,15.90
2023-01-28T12:26:18.182Z,10.07
2023-01-28T12:28:48.105Z,14.48
2023-01-28T12:31:33.436Z,20.92
2023-01-28T12:34:24.602Z,12.85
2023-01-28T12:37:00.905Z,17.05
2023-01-28T12:39:46.727Z,14.68
2023-01-28T12:45:45.559Z,10.80
2023-01-28T12:48:21.991Z,20.88
2023-01-28T12:50:59.019Z,17.55
2023-01-28T12:53:57.020Z,19.92
2023-01-28T12:56:42.531Z,20.13
2023-01-28T12:59:27.562Z,15.25
2023-01-28T13:02:04.652Z,15.70
2023-01-28T13:04:40.057Z,12.05
2023-01-28T13:09:39.453Z,20.85
2023-01-28T13:12:07.276Z,21.13
2023-01-28T13:14:34.929Z,21.58
2023-01-28T13:17:29.066Z,24.02
2023-01-28T13:19:57.006Z,21.52
2023-01-28T13:22:35.333Z,20.38
2023-01-28T13:25:27.280Z,21.58
2023-01-28T13:27:59.568Z,12.70
2023-01-28T13:30:30.633Z,19.92
2023-01-28T13:32:58.715Z,20.42
2023-01-28T13:35:40.958Z,17.50
2023-01-28T13:38:26.284Z,13.25
2023-01-28T13:41:01.880Z,24.15
2023-01-28T13:43:34.936Z,15.48
2023-01-28T13:46:05.466Z,20.85
2023-01-28T13:48:41.160Z,20.00
2023-01-28T13:51:24.327Z,22.20
2023-01-28T13:53:56.965Z,22.92
2023-01-28T13:56:31.295Z,19.55
2023-01-28T13:59:07.115Z,27.02
2023-01-28T14:01:58.700Z,15.13
2023-01-28T14:04:25.522Z,23.60
2023-01-28T14:07:19.458Z,16.20
2023-01-28T14:10:08.691Z,23.13
2023-01-28T14:13:09.323Z,24.25
2023-01-28T14:15:57.883Z,19.48
2023-01-28T14:18:32.847Z,22.27
2023-01-28T14:21:03.280Z,23.38
2023-01-28T14:23:32.487Z,17.77
2023-01-28T14:26:14.352Z,21.90
2023-01-28T14:28:47.527Z,13.45
2023-01-28T14:31:23.118Z,25.25
2023-01-28T14:33:50.498Z,19.85
2023-01-28T14:36:17.351Z,18.70
2023-01-28T14:38:46.662Z,22.55
2023-01-28T14:41:26.826Z,13.70
2023-01-28T14:43:56.129Z,18.02
2023-01-28T14:46:45.431Z,21.73
2023-01-28T14:49:44.002Z,22.92
2023-01-28T14:52:19.906Z,21.08
2023-01-28T14:55:09.227Z,22.85
2023-01-28T14:57:52.737Z,18.25
2023-01-28T15:00:25.764Z,15.90
2023-01-28T15:02:52.927Z,22.60
2023-01-28T15:05:24.819Z,15.23
2023-01-28T15:07:51.865Z,11.95
2023-01-28T15:10:26.988Z,17.42
2023-01-28T15:12:59.439Z,23.55
2023-01-28T15:15:31.846Z,14.85
2023-01-28T15:18:07.458Z,18.58
2023-01-28T15:20:34.886Z,21.52
2023-01-28T15:23:03.708Z,22.27
2023-01-28T15:25:30.713Z,20.67
2023-01-28T15:28:00.892Z,24.58
2023-01-28T15:30:30.840Z,21.63
2023-01-28T15:33:01.384Z,21.40
2023-01-28T15:35:29.109Z,20.55
2023-01-28T15:37:56.510Z,20.33
2023-01-28T15:40:26.040Z,22.38
2023-01-28T15:42:55.863Z,24.60
2023-01-28T15:45:26.081Z,23.60
2023-01-28T15:48:03.033Z,25.35
2023-01-28T15:50:30.273Z,23.35
2023-01-28T15:52:57.534Z,25.73
2023-01-28T15:55:45.192Z,20.75
2023-01-28T15:58:12.117Z,22.17
2023-01-28T16:00:39.661Z,23.20
2023-01-28T16:03:09.990Z,14.90
2023-01-28T16:05:40.561Z,27.08
2023-01-28T16:08:25.419Z,19.92
2023-01-28T16:10:54.292Z,17.17
2023-01-28T16:13:25.165Z,26.55
2023-01-28T16:15:54.536Z,22.00
2023-01-28T16:18:44.199Z,23.90
2023-01-28T16:21:25.381Z,26.85
2023-01-28T16:24:08.135Z,18.33
2023-01-28T16:26:36.217Z,24.70
2023-01-28T16:29:15.393Z,28.70
2023-01-28T16:31:42.586Z,15.52
2023-01-28T16:34:11.045Z,16.75
2023-01-28T16:36:37.888Z,30.35
2023-01-28T16:39:05.035Z,25.48
2023-01-28T16:41:35.813Z,30.65
2023-01-28T16:44:05.952Z,21.95
2023-01-28T16:46:33.705Z,20.75
2023-01-28T16:49:00.740Z,21.83
2023-01-28T16:51:28.063Z,30.00
2023-01-28T16:53:55.151Z,22.00
2023-01-28T16:56:44.107Z,27.95
2023-01-28T16:59:12.325Z,29.20
2023-01-28T17:01:39.693Z,24.42
2023-01-28T17:04:11.958Z,17.63
2023-01-28T17:06:43.495Z,16.77
2023-01-28T17:09:12.168Z,18.58
2023-01-28T17:11:42.346Z,19.55
2023-01-28T17:14:10.678Z,22.73
2023-01-28T17:16:38.457Z,19.25
2023-01-28T17:19:05.623Z,22.33
2023-01-28T17:21:32.569Z,14.00
2023-01-28T17:24:01.030Z,18.98
2023-01-28T17:26:29.355Z,12.60
2023-01-28T17:28:56.699Z,17.67
2023-01-28T17:31:24.225Z,15.23
2023-01-28T17:33:57.468Z,18.55
2023-01-28T17:36:25.878Z,15.88
2023-01-28T17:38:53.564Z,14.93
2023-01-28T17:41:21.220Z,16.98
2023-01-28T17:43:52.286Z,22.15
2023-01-28T17:46:20.506Z,15.45
2023-01-28T17:48:48.309Z,17.10
2023-01-28T17:51:19.144Z,18.45
2023-01-28T17:53:51.388Z,21.38
2023-01-28T17:56:26.395Z,20.92
2023-01-28T17:58:58.767Z,14.50
2023-01-28T18:01:27.108Z,9.57
2023-01-28T18:03:55.197Z,14.95
2023-01-28T18:06:22.628Z,15.85
2023-01-28T18:08:49.508Z,16.58
2023-01-28T18:11:18.454Z,18.63
2023-01-28T18:13:45.727Z,22.17
2023-01-28T18:16:16.325Z,19.98
2023-01-28T18:18:43.927Z,18.02
2023-01-28T18:21:42.854Z,30.48
2023-01-28T18:24:17.845Z,23.00
2023-01-28T18:26:44.824Z,24.08
2023-01-28T18:29:16.885Z,28.58
2023-01-28T18:31:44.165Z,31.33
2023-01-28T18:34:11.389Z,34.53
2023-01-28T18:36:38.324Z,34.63
2023-01-28T18:39:05.529Z,33.10
2023-01-28T18:41:32.455Z,35.83
2023-01-28T18:43:59.319Z,34.90
2023-01-28T18:46:26.244Z,33.55
2023-01-28T18:48:53.186Z,29.27
2023-01-28T18:51:30.134Z,32.90
2023-01-28T18:54:03.284Z,25.17
2023-01-28T18:56:31.219Z,24.40
2023-01-28T18:59:03.647Z,37.75
2023-01-28T19:01:32.056Z,26.10
2023-01-28T19:04:00.175Z,37.97
2023-01-28T19:06:29.000Z,39.95
2023-01-28T19:08:58.007Z,34.63
2023-01-28T19:11:26.813Z,31.65
2023-01-28T19:13:53.998Z,34.90
2023-01-28T19:16:21.919Z,35.92
2023-01-28T19:19:00.095Z,37.45
2023-01-28T19:21:30.911Z,23.23
2023-01-28T19:24:06.621Z,42.88
2023-01-28T19:26:33.876Z,43.85
2023-01-28T19:29:01.745Z,44.65
2023-01-28T19:31:29.231Z,28.20
2023-01-28T19:33:59.143Z,27.55
2023-01-28T19:36:28.062Z,28.48
2023-01-28T19:39:03.775Z,20.35
2023-01-28T19:41:31.155Z,34.30
2023-01-28T19:43:58.840Z,17.30
2023-01-28T19:46:26.421Z,24.15
2023-01-28T19:48:53.966Z,13.43
2023-01-28T19:51:21.654Z,21.13
2023-01-28T19:53:51.663Z,22.02
2023-01-28T19:56:21.164Z,28.10
2023-01-28T19:58:48.156Z,31.70
2023-01-28T20:01:21.563Z,30.98
2023-01-28T20:03:54.700Z,27.23
2023-01-28T20:06:23.969Z,24.00
2023-01-28T20:09:00.627Z,17.52
2023-01-28T20:11:27.571Z,29.75
2023-01-28T20:13:55.773Z,28.20
2023-01-28T20:16:25.455Z,26.08
2023-01-28T20:18:58.190Z,30.10
2023-01-28T20:21:26.478Z,24.27
2023-01-28T20:23:54.727Z,31.98
2023-01-28T20:26:25.147Z,25.60
2023-01-28T20:28:52.053Z,28.55
2023-01-28T20:31:20.581Z,32.90
2023-01-28T20:33:48.148Z,30.73
2023-01-28T20:36:15.351Z,27.05
2023-01-28T20:38:46.666Z,26.45
2023-01-28T20:41:22.981Z,30.88
2023-01-28T20:43:51.348Z,32.58
2023-01-28T20:46:22.468Z,24.60
2023-01-28T20:48:50.249Z,27.65
2023-01-28T20:51:19.668Z,28.52
2023-01-28T20:53:48.042Z,28.90
2023-01-28T20:56:17.738Z,25.40
2023-01-28T20:58:44.941Z,30.20
2023-01-28T21:01:26.961Z,31.00
2023-01-28T21:03:54.238Z,32.55
2023-01-28T21:06:21.130Z,26.63
2023-01-28T21:08:48.070Z,26.33
2023-01-28T21:11:15.005Z,28.90
2023-01-28T21:13:41.934Z,25.38
2023-01-28T21:16:08.937Z,25.38
2023-01-28T21:18:35.856Z,30.48
2023-01-28T21:21:13.683Z,27.60
2023-01-28T21:23:41.619Z,18.83
2023-01-28T21:26:08.965Z,22.45
2023-01-28T21:28:36.045Z,19.15
2023-01-28T21:31:11.478Z,21.98
2023-01-28T21:36:13.711Z,24.35
2023-01-28T21:38:41.552Z,23.20
2023-01-28T21:41:09.687Z,21.08
2023-01-28T21:43:37.312Z,22.90
2023-01-28T21:46:04.824Z,25.88
2023-01-28T21:48:31.857Z,24.85
2023-01-28T21:51:26.555Z,25.00
2023-01-28T21:53:54.313Z,19.80
2023-01-28T21:56:21.393Z,18.88
2023-01-28T21:59:07.043Z,21.50
2023-01-28T22:01:34.619Z,21.52
2023-01-28T22:04:01.583Z,23.83
2023-01-28T22:06:28.449Z,23.83
2023-01-28T22:08:55.567Z,25.48
2023-01-28T22:11:22.855Z,19.48
2023-01-28T22:13:49.734Z,18.17
2023-01-28T22:16:17.277Z,18.63
2023-01-28T22:18:44.324Z,17.00
2023-01-28T22:21:12.351Z,16.10
2023-01-28T22:23:39.616Z,22.80
2023-01-28T22:26:06.631Z,21.17
2023-01-28T22:28:33.537Z,18.52
2023-01-28T22:31:12.690Z,22.80
2023-01-28T22:33:40.686Z,21.10
2023-01-28T22:36:10.014Z,23.25
2023-01-28T22:38:39.201Z,25.05
2023-01-28T22:41:08.928Z,22.08
2023-01-28T22:43:36.140Z,20.17
2023-01-28T22:46:04.335Z,23.90
2023-01-28T22:48:31.309Z,19.45
2023-01-28T22:51:03.183Z,19.17
2023-01-28T22:53:30.782Z,22.38
2023-01-28T22:55:57.735Z,21.30
2023-01-28T22:58:24.874Z,21.08
2023-01-28T23:00:52.548Z,23.73
2023-01-28T23:03:19.593Z,17.15
2023-01-28T23:05:46.530Z,22.20
2023-01-28T23:08:13.417Z,22.38
2023-01-28T23:10:47.221Z,21.42
2023-01-28T23:13:17.360Z,22.05
2023-01-28T23:16:04.056Z,16.60
2023-01-28T23:19:09.867Z,18.60
2023-01-28T23:21:55.659Z,18.02
2023-01-28T23:24:22.695Z,16.02
2023-01-28T23:26:54.761Z,14.60
2023-01-28T23:29:26.643Z,17.80
2023-01-28T23:31:56.459Z,23.08
2023-01-28T23:34:23.656Z,15.68
2023-01-28T23:36:50.728Z,17.75
2023-01-28T23:39:17.628Z,15.15
2023-01-28T23:41:44.493Z,18.63
2023-01-28T23:44:11.437Z,17.65
2023-01-28T23:46:40.143Z,20.85
2023-01-28T23:49:09.789Z,16.23
2023-01-28T23:51:36.705Z,17.95
2023-01-28T23:54:03.541Z,18.65
2023-01-28T23:56:30.507Z,14.23
2023-01-28T23:58:57.355Z,16.35
